sensor_id;sensor_type;location;lat;lon;timestamp;P1;durP1;ratioP1;P2;durP2;ratioP2
6531;SDS011;3299;42.004;24.868;2023-05-07T00:01:38;4.85;;;4.30;;
6531;SDS011;3299;42.004;24.868;2023-05-07T00:04:04;4.82;;;4.43;;
6531;SDS011;3299;42.004;24.868;2023-05-07T00:06:29;6.03;;;4.72;;
6531;SDS011;3299;42.004;24.868;2023-05-07T00:08:56;5.00;;;4.07;;
6531;SDS011;3299;42.004;24.868;2023-05-07T00:11:22;5.53;;;4.50;;
6531;SDS011;3299;42.004;24.868;2023-05-07T00:13:47;6.10;;;4.50;;
6531;SDS011;3299;42.004;24.868;2023-05-07T00:16:13;4.68;;;4.10;;
6531;SDS011;3299;42.004;24.868;2023-05-07T00:18:39;8.30;;;4.90;;
6531;SDS011;3299;42.004;24.868;2023-05-07T00:21:04;5.57;;;5.00;;
6531;SDS011;3299;42.004;24.868;2023-05-07T00:23:30;5.10;;;4.55;;
6531;SDS011;3299;42.004;24.868;2023-05-07T00:25:55;5.20;;;4.70;;
6531;SDS011;3299;42.004;24.868;2023-05-07T00:28:21;5.47;;;4.40;;
6531;SDS011;3299;42.004;24.868;2023-05-07T00:30:46;5.75;;;5.05;;
6531;SDS011;3299;42.004;24.868;2023-05-07T00:33:12;7.60;;;4.90;;
6531;SDS011;3299;42.004;24.868;2023-05-07T00:35:37;6.10;;;5.20;;
6531;SDS011;3299;42.004;24.868;2023-05-07T00:38:02;5.80;;;5.22;;
6531;SDS011;3299;42.004;24.868;2023-05-07T00:40:28;5.95;;;5.05;;
6531;SDS011;3299;42.004;24.868;2023-05-07T00:42:53;5.68;;;5.15;;
6531;SDS011;3299;42.004;24.868;2023-05-07T00:45:21;5.80;;;5.18;;
6531;SDS011;3299;42.004;24.868;2023-05-07T00:47:48;5.50;;;4.95;;
6531;SDS011;3299;42.004;24.868;2023-05-07T00:50:13;6.03;;;4.68;;
6531;SDS011;3299;42.004;24.868;2023-05-07T00:52:38;6.95;;;5.30;;
6531;SDS011;3299;42.004;24.868;2023-05-07T00:55:05;5.40;;;4.75;;
6531;SDS011;3299;42.004;24.868;2023-05-07T00:57:37;5.57;;;5.05;;
6531;SDS011;3299;42.004;24.868;2023-05-07T01:00:05;4.65;;;4.30;;
6531;SDS011;3299;42.004;24.868;2023-05-07T01:02:33;5.30;;;4.60;;
6531;SDS011;3299;42.004;24.868;2023-05-07T01:04:59;5.50;;;5.03;;
6531;SDS011;3299;42.004;24.868;2023-05-07T01:07:25;5.78;;;4.93;;
6531;SDS011;3299;42.004;24.868;2023-05-07T01:09:51;5.63;;;4.60;;
6531;SDS011;3299;42.004;24.868;2023-05-07T01:12:17;8.45;;;4.78;;
6531;SDS011;3299;42.004;24.868;2023-05-07T01:14:43;5.40;;;4.90;;
6531;SDS011;3299;42.004;24.868;2023-05-07T01:17:08;5.80;;;5.00;;
6531;SDS011;3299;42.004;24.868;2023-05-07T01:19:34;8.00;;;5.03;;
6531;SDS011;3299;42.004;24.868;2023-05-07T01:22:04;5.57;;;5.07;;
6531;SDS011;3299;42.004;24.868;2023-05-07T01:24:33;5.78;;;5.18;;
6531;SDS011;3299;42.004;24.868;2023-05-07T01:27:00;6.45;;;4.68;;
6531;SDS011;3299;42.004;24.868;2023-05-07T01:29:26;5.50;;;5.00;;
6531;SDS011;3299;42.004;24.868;2023-05-07T01:31:52;6.10;;;4.65;;
6531;SDS011;3299;42.004;24.868;2023-05-07T01:34:17;5.05;;;4.50;;
6531;SDS011;3299;42.004;24.868;2023-05-07T01:36:45;6.88;;;5.03;;
6531;SDS011;3299;42.004;24.868;2023-05-07T01:39:12;6.05;;;4.60;;
6531;SDS011;3299;42.004;24.868;2023-05-07T01:41:37;5.32;;;4.90;;
6531;SDS011;3299;42.004;24.868;2023-05-07T01:44:03;5.40;;;4.90;;
6531;SDS011;3299;42.004;24.868;2023-05-07T01:46:31;5.55;;;4.47;;
6531;SDS011;3299;42.004;24.868;2023-05-07T01:48:57;5.85;;;5.35;;
6531;SDS011;3299;42.004;24.868;2023-05-07T01:51:23;5.75;;;5.13;;
6531;SDS011;3299;42.004;24.868;2023-05-07T01:53:49;5.78;;;4.85;;
6531;SDS011;3299;42.004;24.868;2023-05-07T01:56:16;5.40;;;4.90;;
6531;SDS011;3299;42.004;24.868;2023-05-07T01:58:44;7.38;;;5.43;;
6531;SDS011;3299;42.004;24.868;2023-05-07T02:01:13;5.82;;;5.20;;
6531;SDS011;3299;42.004;24.868;2023-05-07T02:03:39;5.93;;;5.43;;
6531;SDS011;3299;42.004;24.868;2023-05-07T02:06:04;6.70;;;4.93;;
6531;SDS011;3299;42.004;24.868;2023-05-07T02:08:30;5.85;;;5.22;;
6531;SDS011;3299;42.004;24.868;2023-05-07T02:10:55;5.20;;;4.75;;
6531;SDS011;3299;42.004;24.868;2023-05-07T02:13:21;5.30;;;4.90;;
6531;SDS011;3299;42.004;24.868;2023-05-07T02:15:49;6.40;;;5.80;;
6531;SDS011;3299;42.004;24.868;2023-05-07T02:18:15;7.60;;;5.30;;
6531;SDS011;3299;42.004;24.868;2023-05-07T02:20:42;5.43;;;4.93;;
6531;SDS011;3299;42.004;24.868;2023-05-07T02:23:07;5.18;;;4.68;;
6531;SDS011;3299;42.004;24.868;2023-05-07T02:25:33;8.80;;;4.75;;
6531;SDS011;3299;42.004;24.868;2023-05-07T02:27:58;5.10;;;4.60;;
6531;SDS011;3299;42.004;24.868;2023-05-07T02:30:24;4.60;;;4.30;;
6531;SDS011;3299;42.004;24.868;2023-05-07T02:32:50;7.32;;;4.78;;
6531;SDS011;3299;42.004;24.868;2023-05-07T02:35:15;4.95;;;4.55;;
6531;SDS011;3299;42.004;24.868;2023-05-07T02:37:41;5.80;;;4.70;;
6531;SDS011;3299;42.004;24.868;2023-05-07T02:40:06;4.38;;;4.07;;
6531;SDS011;3299;42.004;24.868;2023-05-07T02:42:32;5.95;;;4.90;;
6531;SDS011;3299;42.004;24.868;2023-05-07T02:44:58;8.98;;;5.13;;
6531;SDS011;3299;42.004;24.868;2023-05-07T02:47:23;5.40;;;5.00;;
6531;SDS011;3299;42.004;24.868;2023-05-07T02:49:52;8.18;;;4.95;;
6531;SDS011;3299;42.004;24.868;2023-05-07T02:52:18;5.28;;;4.78;;
6531;SDS011;3299;42.004;24.868;2023-05-07T02:54:43;9.10;;;4.90;;
6531;SDS011;3299;42.004;24.868;2023-05-07T02:57:09;5.57;;;4.60;;
6531;SDS011;3299;42.004;24.868;2023-05-07T02:59:34;4.55;;;4.15;;
6531;SDS011;3299;42.004;24.868;2023-05-07T03:02:00;4.85;;;4.45;;
6531;SDS011;3299;42.004;24.868;2023-05-07T03:04:25;6.85;;;4.72;;
6531;SDS011;3299;42.004;24.868;2023-05-07T03:06:50;5.70;;;4.20;;
6531;SDS011;3299;42.004;24.868;2023-05-07T03:09:16;4.50;;;4.18;;
6531;SDS011;3299;42.004;24.868;2023-05-07T03:11:41;4.75;;;4.35;;
6531;SDS011;3299;42.004;24.868;2023-05-07T03:14:07;4.97;;;4.57;;
6531;SDS011;3299;42.004;24.868;2023-05-07T03:16:32;4.97;;;3.88;;
6531;SDS011;3299;42.004;24.868;2023-05-07T03:18:58;7.07;;;4.72;;
6531;SDS011;3299;42.004;24.868;2023-05-07T03:21:23;4.57;;;4.18;;
6531;SDS011;3299;42.004;24.868;2023-05-07T03:23:49;5.18;;;4.75;;
6531;SDS011;3299;42.004;24.868;2023-05-07T03:26:14;5.07;;;4.60;;
6531;SDS011;3299;42.004;24.868;2023-05-07T03:28:40;5.07;;;4.57;;
6531;SDS011;3299;42.004;24.868;2023-05-07T03:31:05;4.68;;;4.30;;
6531;SDS011;3299;42.004;24.868;2023-05-07T03:33:32;5.90;;;5.45;;
6531;SDS011;3299;42.004;24.868;2023-05-07T03:35:58;5.07;;;4.65;;
6531;SDS011;3299;42.004;24.868;2023-05-07T03:38:24;5.40;;;4.80;;
6531;SDS011;3299;42.004;24.868;2023-05-07T03:40:49;5.03;;;4.63;;
6531;SDS011;3299;42.004;24.868;2023-05-07T03:43:15;5.75;;;4.32;;
6531;SDS011;3299;42.004;24.868;2023-05-07T03:45:40;4.93;;;4.43;;
6531;SDS011;3299;42.004;24.868;2023-05-07T03:48:06;5.40;;;4.95;;
6531;SDS011;3299;42.004;24.868;2023-05-07T03:50:31;4.95;;;4.38;;
6531;SDS011;3299;42.004;24.868;2023-05-07T03:52:56;5.47;;;4.90;;
6531;SDS011;3299;42.004;24.868;2023-05-07T03:55:22;4.55;;;4.25;;
6531;SDS011;3299;42.004;24.868;2023-05-07T03:57:47;4.82;;;4.53;;
6531;SDS011;3299;42.004;24.868;2023-05-07T04:00:13;5.10;;;4.60;;
6531;SDS011;3299;42.004;24.868;2023-05-07T04:02:39;5.18;;;4.30;;
6531;SDS011;3299;42.004;24.868;2023-05-07T04:05:04;4.68;;;4.30;;
6531;SDS011;3299;42.004;24.868;2023-05-07T04:07:30;5.00;;;4.03;;
6531;SDS011;3299;42.004;24.868;2023-05-07T04:09:55;5.15;;;4.75;;
6531;SDS011;3299;42.004;24.868;2023-05-07T04:12:20;4.95;;;4.00;;
6531;SDS011;3299;42.004;24.868;2023-05-07T04:14:46;5.40;;;4.30;;
6531;SDS011;3299;42.004;24.868;2023-05-07T04:17:11;4.53;;;4.20;;
6531;SDS011;3299;42.004;24.868;2023-05-07T04:19:37;8.45;;;4.55;;
6531;SDS011;3299;42.004;24.868;2023-05-07T04:22:02;5.95;;;4.72;;
6531;SDS011;3299;42.004;24.868;2023-05-07T04:24:30;5.55;;;5.00;;
6531;SDS011;3299;42.004;24.868;2023-05-07T04:26:57;7.43;;;5.32;;
6531;SDS011;3299;42.004;24.868;2023-05-07T04:29:23;9.05;;;5.43;;
6531;SDS011;3299;42.004;24.868;2023-05-07T04:31:49;6.13;;;5.20;;
6531;SDS011;3299;42.004;24.868;2023-05-07T04:34:14;7.47;;;5.00;;
6531;SDS011;3299;42.004;24.868;2023-05-07T04:36:40;5.53;;;5.03;;
6531;SDS011;3299;42.004;24.868;2023-05-07T04:39:07;6.20;;;5.60;;
6531;SDS011;3299;42.004;24.868;2023-05-07T04:41:33;4.68;;;4.28;;
6531;SDS011;3299;42.004;24.868;2023-05-07T04:43:58;4.25;;;3.95;;
6531;SDS011;3299;42.004;24.868;2023-05-07T04:46:24;5.60;;;5.10;;
6531;SDS011;3299;42.004;24.868;2023-05-07T04:48:49;5.22;;;4.72;;
6531;SDS011;3299;42.004;24.868;2023-05-07T04:51:15;5.93;;;4.88;;
6531;SDS011;3299;42.004;24.868;2023-05-07T04:53:40;4.60;;;4.20;;
6531;SDS011;3299;42.004;24.868;2023-05-07T04:56:06;4.75;;;4.35;;
6531;SDS011;3299;42.004;24.868;2023-05-07T04:58:32;4.97;;;4.25;;
6531;SDS011;3299;42.004;24.868;2023-05-07T05:01:00;5.75;;;4.28;;
6531;SDS011;3299;42.004;24.868;2023-05-07T05:03:26;4.10;;;3.80;;
6531;SDS011;3299;42.004;24.868;2023-05-07T05:05:52;5.13;;;4.40;;
6531;SDS011;3299;42.004;24.868;2023-05-07T05:08:18;4.45;;;4.10;;
6531;SDS011;3299;42.004;24.868;2023-05-07T05:10:43;4.75;;;4.45;;
6531;SDS011;3299;42.004;24.868;2023-05-07T05:13:09;4.60;;;4.22;;
6531;SDS011;3299;42.004;24.868;2023-05-07T05:15:37;5.15;;;4.65;;
6531;SDS011;3299;42.004;24.868;2023-05-07T05:18:03;5.38;;;4.38;;
6531;SDS011;3299;42.004;24.868;2023-05-07T05:20:28;4.60;;;4.28;;
6531;SDS011;3299;42.004;24.868;2023-05-07T05:22:54;6.97;;;5.55;;
6531;SDS011;3299;42.004;24.868;2023-05-07T05:25:20;6.35;;;5.60;;
6531;SDS011;3299;42.004;24.868;2023-05-07T05:27:45;9.55;;;6.80;;
6531;SDS011;3299;42.004;24.868;2023-05-07T05:30:11;8.52;;;6.93;;
6531;SDS011;3299;42.004;24.868;2023-05-07T05:32:36;10.57;;;6.90;;
6531;SDS011;3299;42.004;24.868;2023-05-07T05:35:02;10.77;;;7.20;;
6531;SDS011;3299;42.004;24.868;2023-05-07T05:37:27;10.18;;;6.80;;
6531;SDS011;3299;42.004;24.868;2023-05-07T05:39:55;7.93;;;5.90;;
6531;SDS011;3299;42.004;24.868;2023-05-07T05:42:20;6.00;;;4.57;;
6531;SDS011;3299;42.004;24.868;2023-05-07T05:44:46;5.18;;;4.68;;
6531;SDS011;3299;42.004;24.868;2023-05-07T05:47:11;5.05;;;4.38;;
6531;SDS011;3299;42.004;24.868;2023-05-07T05:49:37;4.68;;;4.28;;
6531;SDS011;3299;42.004;24.868;2023-05-07T05:52:02;4.53;;;4.13;;
6531;SDS011;3299;42.004;24.868;2023-05-07T05:54:28;5.20;;;4.10;;
6531;SDS011;3299;42.004;24.868;2023-05-07T05:56:53;4.25;;;3.95;;
6531;SDS011;3299;42.004;24.868;2023-05-07T05:59:19;4.45;;;4.10;;
6531;SDS011;3299;42.004;24.868;2023-05-07T06:01:44;5.93;;;4.60;;
6531;SDS011;3299;42.004;24.868;2023-05-07T06:04:10;6.07;;;4.65;;
6531;SDS011;3299;42.004;24.868;2023-05-07T06:06:35;6.32;;;5.72;;
6531;SDS011;3299;42.004;24.868;2023-05-07T06:09:01;5.75;;;5.18;;
6531;SDS011;3299;42.004;24.868;2023-05-07T06:11:27;6.38;;;4.38;;
6531;SDS011;3299;42.004;24.868;2023-05-07T06:13:53;11.02;;;6.80;;
6531;SDS011;3299;42.004;24.868;2023-05-07T06:16:18;8.95;;;7.15;;
6531;SDS011;3299;42.004;24.868;2023-05-07T06:18:46;16.13;;;7.93;;
6531;SDS011;3299;42.004;24.868;2023-05-07T06:21:13;11.65;;;7.78;;
6531;SDS011;3299;42.004;24.868;2023-05-07T06:23:40;12.00;;;7.88;;
6531;SDS011;3299;42.004;24.868;2023-05-07T06:26:06;20.60;;;8.02;;
6531;SDS011;3299;42.004;24.868;2023-05-07T06:28:31;10.38;;;7.00;;
6531;SDS011;3299;42.004;24.868;2023-05-07T06:31:21;10.82;;;7.15;;
6531;SDS011;3299;42.004;24.868;2023-05-07T06:33:46;12.10;;;6.80;;
6531;SDS011;3299;42.004;24.868;2023-05-07T06:36:12;11.50;;;7.60;;
6531;SDS011;3299;42.004;24.868;2023-05-07T06:38:37;17.85;;;7.78;;
6531;SDS011;3299;42.004;24.868;2023-05-07T06:41:03;10.50;;;6.70;;
6531;SDS011;3299;42.004;24.868;2023-05-07T06:43:28;11.77;;;7.43;;
6531;SDS011;3299;42.004;24.868;2023-05-07T06:45:54;9.13;;;7.25;;
6531;SDS011;3299;42.004;24.868;2023-05-07T06:48:19;11.98;;;7.68;;
6531;SDS011;3299;42.004;24.868;2023-05-07T06:50:45;14.77;;;7.53;;
6531;SDS011;3299;42.004;24.868;2023-05-07T06:53:10;9.52;;;6.93;;
6531;SDS011;3299;42.004;24.868;2023-05-07T06:55:36;10.27;;;6.68;;
6531;SDS011;3299;42.004;24.868;2023-05-07T06:58:03;14.52;;;6.72;;
6531;SDS011;3299;42.004;24.868;2023-05-07T07:00:29;11.00;;;6.57;;
6531;SDS011;3299;42.004;24.868;2023-05-07T07:02:55;10.65;;;6.70;;
6531;SDS011;3299;42.004;24.868;2023-05-07T07:05:21;7.65;;;6.85;;
6531;SDS011;3299;42.004;24.868;2023-05-07T07:07:47;10.15;;;6.72;;
6531;SDS011;3299;42.004;24.868;2023-05-07T07:10:20;8.73;;;6.65;;
6531;SDS011;3299;42.004;24.868;2023-05-07T07:12:46;7.57;;;6.35;;
6531;SDS011;3299;42.004;24.868;2023-05-07T07:15:11;7.45;;;6.60;;
6531;SDS011;3299;42.004;24.868;2023-05-07T07:17:38;9.55;;;6.15;;
6531;SDS011;3299;42.004;24.868;2023-05-07T07:20:03;8.75;;;6.60;;
6531;SDS011;3299;42.004;24.868;2023-05-07T07:22:29;6.57;;;5.85;;
6531;SDS011;3299;42.004;24.868;2023-05-07T07:24:54;8.77;;;5.90;;
6531;SDS011;3299;42.004;24.868;2023-05-07T07:27:20;6.00;;;5.40;;
6531;SDS011;3299;42.004;24.868;2023-05-07T07:29:45;8.55;;;5.63;;
6531;SDS011;3299;42.004;24.868;2023-05-07T07:32:10;6.40;;;5.45;;
6531;SDS011;3299;42.004;24.868;2023-05-07T07:34:36;9.52;;;5.95;;
6531;SDS011;3299;42.004;24.868;2023-05-07T07:37:01;8.63;;;6.00;;
6531;SDS011;3299;42.004;24.868;2023-05-07T07:39:30;8.07;;;5.85;;
6531;SDS011;3299;42.004;24.868;2023-05-07T07:41:56;6.60;;;5.22;;
6531;SDS011;3299;42.004;24.868;2023-05-07T07:44:21;8.15;;;5.78;;
6531;SDS011;3299;42.004;24.868;2023-05-07T07:46:47;8.23;;;4.35;;
6531;SDS011;3299;42.004;24.868;2023-05-07T07:49:12;5.90;;;4.80;;
6531;SDS011;3299;42.004;24.868;2023-05-07T07:51:37;5.72;;;5.22;;
6531;SDS011;3299;42.004;24.868;2023-05-07T07:54:03;6.55;;;4.35;;
6531;SDS011;3299;42.004;24.868;2023-05-07T07:56:29;8.25;;;5.15;;
6531;SDS011;3299;42.004;24.868;2023-05-07T07:58:54;7.88;;;4.80;;
6531;SDS011;3299;42.004;24.868;2023-05-07T08:01:20;8.10;;;4.50;;
6531;SDS011;3299;42.004;24.868;2023-05-07T08:03:45;4.90;;;4.28;;
6531;SDS011;3299;42.004;24.868;2023-05-07T08:06:11;5.68;;;4.03;;
6531;SDS011;3299;42.004;24.868;2023-05-07T08:08:36;4.35;;;3.72;;
6531;SDS011;3299;42.004;24.868;2023-05-07T08:11:01;5.35;;;4.20;;
6531;SDS011;3299;42.004;24.868;2023-05-07T08:13:27;5.32;;;4.60;;
6531;SDS011;3299;42.004;24.868;2023-05-07T08:15:52;6.32;;;4.00;;
6531;SDS011;3299;42.004;24.868;2023-05-07T08:18:18;5.40;;;3.45;;
6531;SDS011;3299;42.004;24.868;2023-05-07T08:20:43;7.20;;;3.88;;
6531;SDS011;3299;42.004;24.868;2023-05-07T08:23:08;3.97;;;3.47;;
6531;SDS011;3299;42.004;24.868;2023-05-07T08:25:34;5.45;;;3.45;;
6531;SDS011;3299;42.004;24.868;2023-05-07T08:28:02;5.25;;;3.88;;
6531;SDS011;3299;42.004;24.868;2023-05-07T08:30:28;4.38;;;3.50;;
6531;SDS011;3299;42.004;24.868;2023-05-07T08:32:54;3.80;;;3.50;;
6531;SDS011;3299;42.004;24.868;2023-05-07T08:35:19;6.30;;;3.67;;
6531;SDS011;3299;42.004;24.868;2023-05-07T08:37:45;5.65;;;3.70;;
6531;SDS011;3299;42.004;24.868;2023-05-07T08:40:10;5.30;;;3.80;;
6531;SDS011;3299;42.004;24.868;2023-05-07T08:42:36;6.95;;;3.00;;
6531;SDS011;3299;42.004;24.868;2023-05-07T08:45:02;5.38;;;3.28;;
6531;SDS011;3299;42.004;24.868;2023-05-07T08:47:33;5.28;;;3.50;;
6531;SDS011;3299;42.004;24.868;2023-05-07T08:50:12;3.90;;;3.28;;
6531;SDS011;3299;42.004;24.868;2023-05-07T08:52:38;7.07;;;3.00;;
6531;SDS011;3299;42.004;24.868;2023-05-07T08:55:05;3.65;;;3.05;;
6531;SDS011;3299;42.004;24.868;2023-05-07T08:57:32;4.38;;;2.90;;
6531;SDS011;3299;42.004;24.868;2023-05-07T08:59:57;6.18;;;2.63;;
6531;SDS011;3299;42.004;24.868;2023-05-07T09:02:22;5.40;;;2.67;;
6531;SDS011;3299;42.004;24.868;2023-05-07T09:04:48;4.75;;;3.53;;
6531;SDS011;3299;42.004;24.868;2023-05-07T09:07:14;5.05;;;3.17;;
6531;SDS011;3299;42.004;24.868;2023-05-07T09:09:39;5.15;;;3.58;;
6531;SDS011;3299;42.004;24.868;2023-05-07T09:12:04;4.38;;;3.20;;
6531;SDS011;3299;42.004;24.868;2023-05-07T09:14:30;3.95;;;3.55;;
6531;SDS011;3299;42.004;24.868;2023-05-07T09:16:56;3.67;;;3.38;;
6531;SDS011;3299;42.004;24.868;2023-05-07T09:19:24;3.95;;;3.65;;
6531;SDS011;3299;42.004;24.868;2023-05-07T09:24:26;4.13;;;3.63;;
6531;SDS011;3299;42.004;24.868;2023-05-07T09:26:53;3.65;;;3.10;;
6531;SDS011;3299;42.004;24.868;2023-05-07T09:29:20;3.20;;;2.83;;
6531;SDS011;3299;42.004;24.868;2023-05-07T09:31:45;3.78;;;3.17;;
6531;SDS011;3299;42.004;24.868;2023-05-07T09:34:11;3.58;;;3.00;;
6531;SDS011;3299;42.004;24.868;2023-05-07T09:36:36;3.38;;;3.03;;
6531;SDS011;3299;42.004;24.868;2023-05-07T09:39:02;3.25;;;2.88;;
6531;SDS011;3299;42.004;24.868;2023-05-07T09:41:27;2.95;;;2.65;;
6531;SDS011;3299;42.004;24.868;2023-05-07T09:43:56;5.93;;;2.90;;
6531;SDS011;3299;42.004;24.868;2023-05-07T09:46:28;4.70;;;2.55;;
6531;SDS011;3299;42.004;24.868;2023-05-07T09:48:56;4.75;;;2.80;;
6531;SDS011;3299;42.004;24.868;2023-05-07T09:51:30;3.47;;;2.80;;
6531;SDS011;3299;42.004;24.868;2023-05-07T09:54:01;4.25;;;3.63;;
6531;SDS011;3299;42.004;24.868;2023-05-07T09:56:29;4.53;;;2.95;;
6531;SDS011;3299;42.004;24.868;2023-05-07T09:58:56;4.00;;;3.60;;
6531;SDS011;3299;42.004;24.868;2023-05-07T10:01:24;6.05;;;4.68;;
6531;SDS011;3299;42.004;24.868;2023-05-07T10:03:50;7.43;;;3.70;;
6531;SDS011;3299;42.004;24.868;2023-05-07T10:06:17;4.93;;;3.85;;
6531;SDS011;3299;42.004;24.868;2023-05-07T10:08:45;7.68;;;3.40;;
6531;SDS011;3299;42.004;24.868;2023-05-07T10:11:10;2.45;;;2.25;;
6531;SDS011;3299;42.004;24.868;2023-05-07T10:13:36;6.53;;;2.70;;
6531;SDS011;3299;42.004;24.868;2023-05-07T10:16:05;4.35;;;2.83;;
6531;SDS011;3299;42.004;24.868;2023-05-07T10:18:31;4.63;;;2.95;;
6531;SDS011;3299;42.004;24.868;2023-05-07T10:23:33;3.55;;;2.95;;
6531;SDS011;3299;42.004;24.868;2023-05-07T10:25:59;9.80;;;5.32;;
6531;SDS011;3299;42.004;24.868;2023-05-07T10:28:29;3.60;;;3.30;;
6531;SDS011;3299;42.004;24.868;2023-05-07T10:33:52;2.95;;;2.75;;
6531;SDS011;3299;42.004;24.868;2023-05-07T10:36:20;2.72;;;2.30;;
6531;SDS011;3299;42.004;24.868;2023-05-07T10:38:47;4.28;;;2.42;;
6531;SDS011;3299;42.004;24.868;2023-05-07T10:41:12;2.47;;;2.20;;
6531;SDS011;3299;42.004;24.868;2023-05-07T10:43:39;2.40;;;2.30;;
6531;SDS011;3299;42.004;24.868;2023-05-07T10:46:10;4.97;;;2.78;;
6531;SDS011;3299;42.004;24.868;2023-05-07T10:51:26;3.85;;;2.33;;
6531;SDS011;3299;42.004;24.868;2023-05-07T10:56:36;2.30;;;2.10;;
6531;SDS011;3299;42.004;24.868;2023-05-07T11:02:04;3.60;;;2.50;;
6531;SDS011;3299;42.004;24.868;2023-05-07T11:04:32;3.45;;;1.90;;
6531;SDS011;3299;42.004;24.868;2023-05-07T11:15:12;2.55;;;1.90;;
6531;SDS011;3299;42.004;24.868;2023-05-07T11:17:53;2.13;;;1.92;;
6531;SDS011;3299;42.004;24.868;2023-05-07T11:20:20;4.20;;;2.50;;
6531;SDS011;3299;42.004;24.868;2023-05-07T11:23:08;2.33;;;1.92;;
6531;SDS011;3299;42.004;24.868;2023-05-07T11:25:58;2.78;;;2.20;;
6531;SDS011;3299;42.004;24.868;2023-05-07T11:28:29;2.42;;;2.33;;
6531;SDS011;3299;42.004;24.868;2023-05-07T11:30:56;5.55;;;2.33;;
6531;SDS011;3299;42.004;24.868;2023-05-07T11:33:22;2.50;;;2.20;;
6531;SDS011;3299;42.004;24.868;2023-05-07T11:35:50;2.42;;;2.22;;
6531;SDS011;3299;42.004;24.868;2023-05-07T11:38:18;2.72;;;2.53;;
6531;SDS011;3299;42.004;24.868;2023-05-07T11:40:54;3.60;;;2.15;;
6531;SDS011;3299;42.004;24.868;2023-05-07T11:43:21;5.25;;;2.63;;
6531;SDS011;3299;42.004;24.868;2023-05-07T11:45:47;3.13;;;2.67;;
6531;SDS011;3299;42.004;24.868;2023-05-07T11:48:13;2.63;;;2.22;;
6531;SDS011;3299;42.004;24.868;2023-05-07T11:50:54;3.97;;;2.25;;
6531;SDS011;3299;42.004;24.868;2023-05-07T11:53:25;2.55;;;2.35;;
6531;SDS011;3299;42.004;24.868;2023-05-07T11:55:52;4.05;;;2.28;;
6531;SDS011;3299;42.004;24.868;2023-05-07T11:58:22;3.40;;;2.30;;
6531;SDS011;3299;42.004;24.868;2023-05-07T12:00:52;3.72;;;2.88;;
6531;SDS011;3299;42.004;24.868;2023-05-07T12:03:19;3.03;;;2.80;;
6531;SDS011;3299;42.004;24.868;2023-05-07T12:05:45;2.45;;;2.25;;
6531;SDS011;3299;42.004;24.868;2023-05-07T12:08:15;2.35;;;2.08;;
6531;SDS011;3299;42.004;24.868;2023-05-07T12:10:41;2.78;;;2.58;;
6531;SDS011;3299;42.004;24.868;2023-05-07T12:13:17;2.80;;;2.60;;
6531;SDS011;3299;42.004;24.868;2023-05-07T12:15:44;10.90;;;2.88;;
6531;SDS011;3299;42.004;24.868;2023-05-07T12:18:10;3.03;;;2.30;;
6531;SDS011;3299;42.004;24.868;2023-05-07T12:20:37;3.28;;;2.42;;
6531;SDS011;3299;42.004;24.868;2023-05-07T12:23:02;5.25;;;2.80;;
6531;SDS011;3299;42.004;24.868;2023-05-07T12:25:32;5.75;;;2.30;;
6531;SDS011;3299;42.004;24.868;2023-05-07T12:28:00;3.47;;;2.45;;
6531;SDS011;3299;42.004;24.868;2023-05-07T12:30:26;3.08;;;2.78;;
6531;SDS011;3299;42.004;24.868;2023-05-07T12:32:54;3.85;;;3.55;;
6531;SDS011;3299;42.004;24.868;2023-05-07T12:35:32;3.42;;;2.10;;
6531;SDS011;3299;42.004;24.868;2023-05-07T12:38:04;3.10;;;2.20;;
6531;SDS011;3299;42.004;24.868;2023-05-07T12:40:37;1.98;;;1.88;;
6531;SDS011;3299;42.004;24.868;2023-05-07T12:43:02;2.88;;;2.30;;
6531;SDS011;3299;42.004;24.868;2023-05-07T12:45:28;2.47;;;2.28;;
6531;SDS011;3299;42.004;24.868;2023-05-07T12:47:53;3.25;;;2.35;;
6531;SDS011;3299;42.004;24.868;2023-05-07T12:50:19;3.63;;;2.08;;
6531;SDS011;3299;42.004;24.868;2023-05-07T12:52:47;5.38;;;2.50;;
6531;SDS011;3299;42.004;24.868;2023-05-07T12:55:16;5.88;;;2.53;;
6531;SDS011;3299;42.004;24.868;2023-05-07T12:57:42;2.72;;;2.25;;
6531;SDS011;3299;42.004;24.868;2023-05-07T13:00:11;3.13;;;2.03;;
6531;SDS011;3299;42.004;24.868;2023-05-07T13:02:37;2.30;;;2.10;;
6531;SDS011;3299;42.004;24.868;2023-05-07T13:05:04;4.13;;;2.25;;
6531;SDS011;3299;42.004;24.868;2023-05-07T13:07:30;3.70;;;2.38;;
6531;SDS011;3299;42.004;24.868;2023-05-07T13:09:55;2.65;;;1.85;;
6531;SDS011;3299;42.004;24.868;2023-05-07T13:12:20;2.55;;;2.00;;
6531;SDS011;3299;42.004;24.868;2023-05-07T13:14:46;4.90;;;1.83;;
6531;SDS011;3299;42.004;24.868;2023-05-07T13:17:11;4.10;;;2.08;;
6531;SDS011;3299;42.004;24.868;2023-05-07T13:19:37;4.57;;;1.77;;
6531;SDS011;3299;42.004;24.868;2023-05-07T13:22:03;2.80;;;2.38;;
6531;SDS011;3299;42.004;24.868;2023-05-07T13:24:28;2.60;;;1.90;;
6531;SDS011;3299;42.004;24.868;2023-05-07T13:26:54;3.00;;;1.95;;
6531;SDS011;3299;42.004;24.868;2023-05-07T13:29:19;2.35;;;1.85;;
6531;SDS011;3299;42.004;24.868;2023-05-07T13:31:50;1.83;;;1.73;;
6531;SDS011;3299;42.004;24.868;2023-05-07T13:34:15;2.88;;;1.77;;
6531;SDS011;3299;42.004;24.868;2023-05-07T13:36:41;3.38;;;2.10;;
6531;SDS011;3299;42.004;24.868;2023-05-07T13:39:06;1.92;;;1.77;;
6531;SDS011;3299;42.004;24.868;2023-05-07T13:41:32;2.47;;;2.00;;
6531;SDS011;3299;42.004;24.868;2023-05-07T13:43:57;2.63;;;2.05;;
6531;SDS011;3299;42.004;24.868;2023-05-07T13:46:23;3.25;;;2.70;;
6531;SDS011;3299;42.004;24.868;2023-05-07T13:48:48;4.88;;;2.15;;
6531;SDS011;3299;42.004;24.868;2023-05-07T13:51:15;4.50;;;1.70;;
6531;SDS011;3299;42.004;24.868;2023-05-07T13:53:41;3.80;;;2.00;;
6531;SDS011;3299;42.004;24.868;2023-05-07T13:56:07;2.08;;;1.95;;
6531;SDS011;3299;42.004;24.868;2023-05-07T13:58:32;2.67;;;2.10;;
6531;SDS011;3299;42.004;24.868;2023-05-07T14:00:58;2.15;;;2.00;;
6531;SDS011;3299;42.004;24.868;2023-05-07T14:03:23;3.80;;;2.00;;
6531;SDS011;3299;42.004;24.868;2023-05-07T14:05:48;1.80;;;1.70;;
6531;SDS011;3299;42.004;24.868;2023-05-07T14:08:14;2.70;;;2.00;;
6531;SDS011;3299;42.004;24.868;2023-05-07T14:10:39;2.78;;;1.92;;
6531;SDS011;3299;42.004;24.868;2023-05-07T14:13:05;5.25;;;2.60;;
6531;SDS011;3299;42.004;24.868;2023-05-07T14:15:31;2.00;;;1.80;;
6531;SDS011;3299;42.004;24.868;2023-05-07T14:17:57;2.10;;;1.98;;
6531;SDS011;3299;42.004;24.868;2023-05-07T14:20:24;3.40;;;1.70;;
6531;SDS011;3299;42.004;24.868;2023-05-07T14:22:50;4.03;;;1.80;;
6531;SDS011;3299;42.004;24.868;2023-05-07T14:25:15;3.42;;;1.85;;
6531;SDS011;3299;42.004;24.868;2023-05-07T14:27:41;3.58;;;2.25;;
6531;SDS011;3299;42.004;24.868;2023-05-07T14:30:07;2.30;;;1.90;;
6531;SDS011;3299;42.004;24.868;2023-05-07T14:32:33;2.25;;;1.67;;
6531;SDS011;3299;42.004;24.868;2023-05-07T14:34:59;3.05;;;2.33;;
6531;SDS011;3299;42.004;24.868;2023-05-07T14:37:25;3.75;;;1.70;;
6531;SDS011;3299;42.004;24.868;2023-05-07T14:39:50;1.55;;;1.30;;
6531;SDS011;3299;42.004;24.868;2023-05-07T14:42:15;2.60;;;1.63;;
6531;SDS011;3299;42.004;24.868;2023-05-07T14:44:41;1.88;;;1.77;;
6531;SDS011;3299;42.004;24.868;2023-05-07T14:47:07;2.63;;;1.73;;
6531;SDS011;3299;42.004;24.868;2023-05-07T14:49:33;3.08;;;2.10;;
6531;SDS011;3299;42.004;24.868;2023-05-07T14:51:58;2.50;;;1.70;;
6531;SDS011;3299;42.004;24.868;2023-05-07T14:54:25;3.22;;;1.85;;
6531;SDS011;3299;42.004;24.868;2023-05-07T14:56:50;3.10;;;1.80;;
6531;SDS011;3299;42.004;24.868;2023-05-07T14:59:16;2.15;;;1.80;;
6531;SDS011;3299;42.004;24.868;2023-05-07T15:01:44;2.83;;;2.03;;
6531;SDS011;3299;42.004;24.868;2023-05-07T15:04:10;2.58;;;2.22;;
6531;SDS011;3299;42.004;24.868;2023-05-07T15:06:36;2.72;;;2.53;;
6531;SDS011;3299;42.004;24.868;2023-05-07T15:09:01;2.45;;;2.25;;
6531;SDS011;3299;42.004;24.868;2023-05-07T15:11:27;3.70;;;2.10;;
6531;SDS011;3299;42.004;24.868;2023-05-07T15:13:53;4.93;;;2.10;;
6531;SDS011;3299;42.004;24.868;2023-05-07T15:16:18;5.30;;;1.98;;
6531;SDS011;3299;42.004;24.868;2023-05-07T15:18:44;2.35;;;2.10;;
6531;SDS011;3299;42.004;24.868;2023-05-07T15:21:09;3.83;;;1.95;;